sensor_id;sensor_type;location;lat;lon;timestamp;pressure;altitude;pressure_sealevel;temperature;humidity
69570;BME280;56781;42.292;23.146;2023-02-18T00:01:10;96484.72;;;-5.13;100.00
69570;BME280;56781;42.292;23.146;2023-02-18T00:03:37;96514.91;;;-4.81;100.00
69570;BME280;56781;42.292;23.146;2023-02-18T00:06:21;96512.88;;;-4.85;100.00
69570;BME280;56781;42.292;23.146;2023-02-18T00:08:49;96465.13;;;-4.79;100.00
69570;BME280;56781;42.292;23.146;2023-02-18T00:11:18;96452.81;;;-4.85;100.00
69570;BME280;56781;42.292;23.146;2023-02-18T00:13:55;96461.97;;;-4.60;100.00
69570;BME280;56781;42.292;23.146;2023-02-18T00:16:23;96475.38;;;-4.33;100.00
69570;BME280;56781;42.292;23.146;2023-02-18T00:18:55;96462.69;;;-4.51;100.00
69570;BME280;56781;42.292;23.146;2023-02-18T00:21:23;96456.03;;;-4.69;100.00
69570;BME280;56781;42.292;23.146;2023-02-18T00:23:50;96464.66;;;-4.38;100.00
69570;BME280;56781;42.292;23.146;2023-02-18T00:26:18;96484.66;;;-4.31;100.00
69570;BME280;56781;42.292;23.146;2023-02-18T00:28:47;96472.22;;;-4.29;100.00
69570;BME280;56781;42.292;23.146;2023-02-18T00:31:19;96440.88;;;-4.29;100.00
69570;BME280;56781;42.292;23.146;2023-02-18T00:33:46;96449.84;;;-4.16;100.00
69570;BME280;56781;42.292;23.146;2023-02-18T00:36:16;96454.91;;;-4.30;100.00
69570;BME280;56781;42.292;23.146;2023-02-18T00:38:48;96471.06;;;-4.71;100.00
69570;BME280;56781;42.292;23.146;2023-02-18T00:41:16;96482.75;;;-5.11;100.00
69570;BME280;56781;42.292;23.146;2023-02-18T00:43:43;96467.06;;;-5.26;100.00
69570;BME280;56781;42.292;23.146;2023-02-18T00:46:10;96462.25;;;-4.99;100.00
69570;BME280;56781;42.292;23.146;2023-02-18T00:48:38;96439.72;;;-5.00;100.00
69570;BME280;56781;42.292;23.146;2023-02-18T00:51:06;96451.72;;;-4.76;100.00
69570;BME280;56781;42.292;23.146;2023-02-18T00:53:34;96425.44;;;-4.75;100.00
69570;BME280;56781;42.292;23.146;2023-02-18T00:56:02;96421.56;;;-4.94;100.00
69570;BME280;56781;42.292;23.146;2023-02-18T00:58:29;96412.09;;;-4.80;100.00
69570;BME280;56781;42.292;23.146;2023-02-18T01:00:56;96401.56;;;-4.86;100.00
69570;BME280;56781;42.292;23.146;2023-02-18T01:03:24;96423.50;;;-4.51;100.00
69570;BME280;56781;42.292;23.146;2023-02-18T01:05:52;96402.16;;;-4.55;100.00
69570;BME280;56781;42.292;23.146;2023-02-18T01:08:20;96395.22;;;-4.48;100.00
69570;BME280;56781;42.292;23.146;2023-02-18T01:10:51;96402.56;;;-4.36;100.00
69570;BME280;56781;42.292;23.146;2023-02-18T01:13:19;96394.16;;;-4.32;100.00
69570;BME280;56781;42.292;23.146;2023-02-18T01:15:46;96405.81;;;-4.13;100.00
69570;BME280;56781;42.292;23.146;2023-02-18T01:18:13;96441.22;;;-3.95;100.00
69570;BME280;56781;42.292;23.146;2023-02-18T01:20:42;96400.59;;;-4.13;100.00
69570;BME280;56781;42.292;23.146;2023-02-18T01:23:10;96403.53;;;-4.22;100.00
69570;BME280;56781;42.292;23.146;2023-02-18T01:25:37;96391.06;;;-4.42;100.00
69570;BME280;56781;42.292;23.146;2023-02-18T01:28:05;96388.94;;;-4.53;100.00
69570;BME280;56781;42.292;23.146;2023-02-18T01:30:34;96392.38;;;-4.82;100.00
69570;BME280;56781;42.292;23.146;2023-02-18T01:33:01;96391.13;;;-5.16;100.00
69570;BME280;56781;42.292;23.146;2023-02-18T01:35:28;96385.66;;;-5.59;100.00
69570;BME280;56781;42.292;23.146;2023-02-18T01:37:55;96419.63;;;-5.67;100.00
69570;BME280;56781;42.292;23.146;2023-02-18T01:40:26;96383.16;;;-6.05;100.00
69570;BME280;56781;42.292;23.146;2023-02-18T01:42:54;96384.72;;;-5.96;100.00
69570;BME280;56781;42.292;23.146;2023-02-18T01:48:10;96394.59;;;-5.53;100.00
69570;BME280;56781;42.292;23.146;2023-02-18T01:50:42;96431.81;;;-5.07;100.00
69570;BME280;56781;42.292;23.146;2023-02-18T01:53:14;96418.75;;;-5.22;100.00
69570;BME280;56781;42.292;23.146;2023-02-18T01:55:43;96417.13;;;-5.08;100.00
69570;BME280;56781;42.292;23.146;2023-02-18T01:58:11;96413.06;;;-5.25;100.00
69570;BME280;56781;42.292;23.146;2023-02-18T02:00:39;96413.88;;;-5.25;100.00
69570;BME280;56781;42.292;23.146;2023-02-18T02:03:06;96407.81;;;-5.40;100.00
69570;BME280;56781;42.292;23.146;2023-02-18T02:05:34;96388.03;;;-5.49;100.00
69570;BME280;56781;42.292;23.146;2023-02-18T02:08:02;96414.44;;;-5.15;100.00
69570;BME280;56781;42.292;23.146;2023-02-18T02:13:38;96427.06;;;-5.56;100.00
69570;BME280;56781;42.292;23.146;2023-02-18T02:16:13;96438.22;;;-6.08;100.00
69570;BME280;56781;42.292;23.146;2023-02-18T02:18:51;96432.53;;;-6.12;100.00
69570;BME280;56781;42.292;23.146;2023-02-18T02:21:44;96435.84;;;-5.95;100.00
69570;BME280;56781;42.292;23.146;2023-02-18T02:29:58;96431.13;;;-5.76;100.00
69570;BME280;56781;42.292;23.146;2023-02-18T02:32:31;96432.41;;;-5.72;100.00
69570;BME280;56781;42.292;23.146;2023-02-18T02:35:29;96422.38;;;-5.46;100.00
69570;BME280;56781;42.292;23.146;2023-02-18T02:38:23;96442.41;;;-5.23;100.00
69570;BME280;56781;42.292;23.146;2023-02-18T02:46:47;96433.34;;;-6.11;100.00
69570;BME280;56781;42.292;23.146;2023-02-18T02:49:38;96464.25;;;-5.62;100.00
69570;BME280;56781;42.292;23.146;2023-02-18T02:52:25;96425.41;;;-5.72;100.00
69570;BME280;56781;42.292;23.146;2023-02-18T02:54:53;96463.53;;;-5.33;100.00
69570;BME280;56781;42.292;23.146;2023-02-18T02:59:57;96410.78;;;-5.58;100.00
69570;BME280;56781;42.292;23.146;2023-02-18T03:02:57;96417.22;;;-5.31;100.00
69570;BME280;56781;42.292;23.146;2023-02-18T03:11:20;96417.25;;;-6.15;100.00
69570;BME280;56781;42.292;23.146;2023-02-18T03:13:56;96422.81;;;-6.18;100.00
69570;BME280;56781;42.292;23.146;2023-02-18T03:19:19;96405.69;;;-6.12;100.00
69570;BME280;56781;42.292;23.146;2023-02-18T03:22:01;96398.28;;;-6.23;100.00
69570;BME280;56781;42.292;23.146;2023-02-18T03:24:40;96404.22;;;-6.15;100.00
69570;BME280;56781;42.292;23.146;2023-02-18T03:27:39;96422.56;;;-6.08;100.00
69570;BME280;56781;42.292;23.146;2023-02-18T03:30:22;96443.22;;;-5.84;100.00
69570;BME280;56781;42.292;23.146;2023-02-18T03:32:54;96407.72;;;-5.85;100.00
69570;BME280;56781;42.292;23.146;2023-02-18T03:35:22;96429.81;;;-5.72;100.00
69570;BME280;56781;42.292;23.146;2023-02-18T03:37:55;96435.00;;;-6.10;100.00
69570;BME280;56781;42.292;23.146;2023-02-18T03:40:28;96414.97;;;-6.41;100.00
69570;BME280;56781;42.292;23.146;2023-02-18T03:42:57;96426.78;;;-6.61;100.00
69570;BME280;56781;42.292;23.146;2023-02-18T03:45:25;96426.31;;;-6.65;100.00
69570;BME280;56781;42.292;23.146;2023-02-18T03:47:53;96430.88;;;-6.36;100.00
69570;BME280;56781;42.292;23.146;2023-02-18T03:50:20;96426.38;;;-6.19;100.00
69570;BME280;56781;42.292;23.146;2023-02-18T03:52:47;96442.22;;;-6.20;100.00
69570;BME280;56781;42.292;23.146;2023-02-18T03:55:15;96453.69;;;-6.38;100.00
69570;BME280;56781;42.292;23.146;2023-02-18T03:57:42;96468.66;;;-6.32;100.00
69570;BME280;56781;42.292;23.146;2023-02-18T04:00:09;96466.34;;;-6.27;100.00
69570;BME280;56781;42.292;23.146;2023-02-18T04:02:37;96480.22;;;-6.34;100.00
69570;BME280;56781;42.292;23.146;2023-02-18T04:05:04;96445.00;;;-6.53;100.00
69570;BME280;56781;42.292;23.146;2023-02-18T04:07:33;96482.09;;;-6.20;100.00
69570;BME280;56781;42.292;23.146;2023-02-18T04:10:00;96456.91;;;-6.28;100.00
69570;BME280;56781;42.292;23.146;2023-02-18T04:12:27;96448.94;;;-6.03;100.00
69570;BME280;56781;42.292;23.146;2023-02-18T04:14:54;96460.00;;;-5.78;100.00
69570;BME280;56781;42.292;23.146;2023-02-18T04:17:21;96476.16;;;-5.83;100.00
69570;BME280;56781;42.292;23.146;2023-02-18T04:19:48;96472.06;;;-6.31;100.00
69570;BME280;56781;42.292;23.146;2023-02-18T04:22:15;96493.88;;;-6.01;100.00
69570;BME280;56781;42.292;23.146;2023-02-18T04:24:43;96475.22;;;-6.44;100.00
69570;BME280;56781;42.292;23.146;2023-02-18T04:27:10;96512.91;;;-6.23;100.00
69570;BME280;56781;42.292;23.146;2023-02-18T04:29:37;96491.13;;;-6.39;100.00
69570;BME280;56781;42.292;23.146;2023-02-18T04:32:04;96487.47;;;-6.53;100.00
69570;BME280;56781;42.292;23.146;2023-02-18T04:34:31;96467.78;;;-6.55;100.00
69570;BME280;56781;42.292;23.146;2023-02-18T04:36:59;96457.34;;;-6.55;100.00
69570;BME280;56781;42.292;23.146;2023-02-18T04:39:26;96474.69;;;-6.08;100.00
69570;BME280;56781;42.292;23.146;2023-02-18T04:41:53;96456.94;;;-6.05;100.00
69570;BME280;56781;42.292;23.146;2023-02-18T04:44:20;96459.06;;;-6.08;100.00
69570;BME280;56781;42.292;23.146;2023-02-18T04:46:47;96440.75;;;-6.23;100.00
69570;BME280;56781;42.292;23.146;2023-02-18T04:49:14;96456.19;;;-6.13;100.00
69570;BME280;56781;42.292;23.146;2023-02-18T04:51:41;96457.59;;;-6.11;100.00
69570;BME280;56781;42.292;23.146;2023-02-18T04:54:08;96462.19;;;-5.90;100.00
69570;BME280;56781;42.292;23.146;2023-02-18T04:56:35;96441.91;;;-5.80;100.00
69570;BME280;56781;42.292;23.146;2023-02-18T04:59:02;96457.88;;;-5.60;100.00
69570;BME280;56781;42.292;23.146;2023-02-18T05:01:29;96478.28;;;-5.63;100.00
69570;BME280;56781;42.292;23.146;2023-02-18T05:03:56;96464.72;;;-5.82;100.00
69570;BME280;56781;42.292;23.146;2023-02-18T05:06:24;96494.84;;;-5.79;100.00
69570;BME280;56781;42.292;23.146;2023-02-18T05:08:51;96457.84;;;-5.97;100.00
69570;BME280;56781;42.292;23.146;2023-02-18T05:11:18;96473.59;;;-5.91;100.00
69570;BME280;56781;42.292;23.146;2023-02-18T05:13:45;96466.59;;;-6.13;100.00
69570;BME280;56781;42.292;23.146;2023-02-18T05:16:12;96455.09;;;-6.27;100.00
69570;BME280;56781;42.292;23.146;2023-02-18T05:18:40;96456.63;;;-6.10;100.00
69570;BME280;56781;42.292;23.146;2023-02-18T05:21:07;96472.59;;;-5.90;100.00
69570;BME280;56781;42.292;23.146;2023-02-18T05:23:34;96450.97;;;-6.13;100.00
69570;BME280;56781;42.292;23.146;2023-02-18T05:26:01;96475.94;;;-5.96;100.00
69570;BME280;56781;42.292;23.146;2023-02-18T05:28:28;96433.84;;;-6.08;100.00
69570;BME280;56781;42.292;23.146;2023-02-18T05:30:56;96470.81;;;-5.66;100.00
69570;BME280;56781;42.292;23.146;2023-02-18T05:33:23;96466.38;;;-5.81;100.00
69570;BME280;56781;42.292;23.146;2023-02-18T05:35:50;96461.03;;;-5.64;100.00
69570;BME280;56781;42.292;23.146;2023-02-18T05:38:17;96453.63;;;-5.98;100.00
69570;BME280;56781;42.292;23.146;2023-02-18T05:40:44;96441.91;;;-6.26;100.00
69570;BME280;56781;42.292;23.146;2023-02-18T05:43:11;96445.81;;;-6.30;100.00
69570;BME280;56781;42.292;23.146;2023-02-18T05:45:39;96453.66;;;-5.84;100.00
69570;BME280;56781;42.292;23.146;2023-02-18T05:48:06;96466.19;;;-5.56;100.00
69570;BME280;56781;42.292;23.146;2023-02-18T05:50:33;96490.72;;;-5.27;100.00
69570;BME280;56781;42.292;23.146;2023-02-18T05:53:01;96483.59;;;-5.33;100.00
69570;BME280;56781;42.292;23.146;2023-02-18T05:55:28;96505.56;;;-4.90;100.00
69570;BME280;56781;42.292;23.146;2023-02-18T05:57:55;96481.97;;;-4.67;100.00
69570;BME280;56781;42.292;23.146;2023-02-18T06:00:22;96492.22;;;-4.36;100.00
69570;BME280;56781;42.292;23.146;2023-02-18T06:02:50;96502.59;;;-4.28;100.00
69570;BME280;56781;42.292;23.146;2023-02-18T06:05:17;96490.69;;;-4.30;100.00
69570;BME280;56781;42.292;23.146;2023-02-18T06:07:45;96491.88;;;-4.18;99.80
69570;BME280;56781;42.292;23.146;2023-02-18T06:10:12;96466.69;;;-4.19;99.57
69570;BME280;56781;42.292;23.146;2023-02-18T06:12:39;96483.50;;;-3.92;98.94
69570;BME280;56781;42.292;23.146;2023-02-18T06:15:06;96479.69;;;-3.89;98.15
69570;BME280;56781;42.292;23.146;2023-02-18T06:17:33;96496.56;;;-3.92;99.29
69570;BME280;56781;42.292;23.146;2023-02-18T06:20:01;96481.78;;;-3.99;99.36
69570;BME280;56781;42.292;23.146;2023-02-18T06:22:28;96497.78;;;-4.24;100.00
69570;BME280;56781;42.292;23.146;2023-02-18T06:24:55;96507.13;;;-4.00;100.00
69570;BME280;56781;42.292;23.146;2023-02-18T06:27:22;96520.38;;;-3.87;100.00
69570;BME280;56781;42.292;23.146;2023-02-18T06:29:49;96495.69;;;-3.78;100.00
69570;BME280;56781;42.292;23.146;2023-02-18T06:32:16;96522.94;;;-3.29;100.00
69570;BME280;56781;42.292;23.146;2023-02-18T06:34:44;96481.50;;;-3.04;100.00
69570;BME280;56781;42.292;23.146;2023-02-18T06:37:11;96479.75;;;-2.55;99.08
69570;BME280;56781;42.292;23.146;2023-02-18T06:39:39;96471.00;;;-1.80;96.43
69570;BME280;56781;42.292;23.146;2023-02-18T06:42:06;96473.72;;;-1.26;92.61
69570;BME280;56781;42.292;23.146;2023-02-18T06:44:33;96502.91;;;-0.23;89.91
69570;BME280;56781;42.292;23.146;2023-02-18T06:47:03;96504.97;;;0.20;87.11
69570;BME280;56781;42.292;23.146;2023-02-18T06:49:30;96498.03;;;0.64;85.01
69570;BME280;56781;42.292;23.146;2023-02-18T06:51:57;96503.56;;;0.56;84.34
69570;BME280;56781;42.292;23.146;2023-02-18T06:54:25;96501.91;;;0.93;82.96
69570;BME280;56781;42.292;23.146;2023-02-18T06:56:52;96474.19;;;0.84;81.54
69570;BME280;56781;42.292;23.146;2023-02-18T06:59:19;96498.38;;;1.06;82.38
69570;BME280;56781;42.292;23.146;2023-02-18T07:01:46;96464.84;;;0.88;82.06
69570;BME280;56781;42.292;23.146;2023-02-18T07:04:13;96474.38;;;1.14;81.92
69570;BME280;56781;42.292;23.146;2023-02-18T07:06:40;96486.19;;;1.05;81.10
69570;BME280;56781;42.292;23.146;2023-02-18T07:09:08;96476.69;;;0.72;82.37
69570;BME280;56781;42.292;23.146;2023-02-18T07:11:35;96490.34;;;0.31;85.05
69570;BME280;56781;42.292;23.146;2023-02-18T07:14:02;96468.00;;;0.02;86.84
69570;BME280;56781;42.292;23.146;2023-02-18T07:16:29;96465.34;;;0.02;86.81
69570;BME280;56781;42.292;23.146;2023-02-18T07:18:56;96479.50;;;0.14;86.64
69570;BME280;56781;42.292;23.146;2023-02-18T07:21:23;96499.91;;;0.57;85.71
69570;BME280;56781;42.292;23.146;2023-02-18T07:23:50;96480.66;;;0.56;84.88
69570;BME280;56781;42.292;23.146;2023-02-18T07:26:17;96499.81;;;0.70;85.54
69570;BME280;56781;42.292;23.146;2023-02-18T07:28:45;96478.72;;;0.77;84.15
69570;BME280;56781;42.292;23.146;2023-02-18T07:31:12;96484.25;;;0.94;83.27
69570;BME280;56781;42.292;23.146;2023-02-18T07:33:39;96488.44;;;1.26;82.05
69570;BME280;56781;42.292;23.146;2023-02-18T07:36:07;96467.78;;;1.23;82.27
69570;BME280;56781;42.292;23.146;2023-02-18T07:38:34;96505.53;;;1.42;82.06
69570;BME280;56781;42.292;23.146;2023-02-18T07:41:01;96454.28;;;1.13;82.36
69570;BME280;56781;42.292;23.146;2023-02-18T07:43:29;96493.50;;;1.71;81.43
69570;BME280;56781;42.292;23.146;2023-02-18T07:45:56;96484.59;;;1.84;80.50
69570;BME280;56781;42.292;23.146;2023-02-18T07:48:23;96502.28;;;2.20;79.62
69570;BME280;56781;42.292;23.146;2023-02-18T07:50:50;96490.06;;;2.19;80.37
69570;BME280;56781;42.292;23.146;2023-02-18T07:53:17;96472.19;;;2.21;80.06
69570;BME280;56781;42.292;23.146;2023-02-18T07:55:44;96455.25;;;2.11;81.47
69570;BME280;56781;42.292;23.146;2023-02-18T07:58:20;96473.31;;;2.98;79.99
69570;BME280;56781;42.292;23.146;2023-02-18T08:00:48;96450.91;;;3.59;77.89
69570;BME280;56781;42.292;23.146;2023-02-18T08:03:17;96487.19;;;4.51;74.81
69570;BME280;56781;42.292;23.146;2023-02-18T08:05:47;96488.19;;;5.63;70.82
69570;BME280;56781;42.292;23.146;2023-02-18T08:08:18;96461.63;;;5.63;69.37
69570;BME280;56781;42.292;23.146;2023-02-18T08:10:48;96451.84;;;5.86;68.55
69570;BME280;56781;42.292;23.146;2023-02-18T08:13:16;96453.13;;;6.00;67.26
69570;BME280;56781;42.292;23.146;2023-02-18T08:15:43;96426.88;;;5.87;65.81
69570;BME280;56781;42.292;23.146;2023-02-18T08:18:17;96450.22;;;5.63;68.89
69570;BME280;56781;42.292;23.146;2023-02-18T08:20:45;96443.97;;;5.52;69.15
69570;BME280;56781;42.292;23.146;2023-02-18T08:23:13;96415.16;;;5.44;67.14
69570;BME280;56781;42.292;23.146;2023-02-18T08:25:46;96418.34;;;6.29;65.61
69570;BME280;56781;42.292;23.146;2023-02-18T08:28:17;96414.06;;;7.62;61.24
69570;BME280;56781;42.292;23.146;2023-02-18T08:30:48;96439.81;;;7.93;60.39
69570;BME280;56781;42.292;23.146;2023-02-18T08:33:16;96414.44;;;9.30;54.43
69570;BME280;56781;42.292;23.146;2023-02-18T08:35:44;96404.84;;;9.29;53.77
69570;BME280;56781;42.292;23.146;2023-02-18T08:38:12;96425.44;;;7.99;55.36
69570;BME280;56781;42.292;23.146;2023-02-18T08:40:39;96392.47;;;6.46;63.27
69570;BME280;56781;42.292;23.146;2023-02-18T08:43:07;96421.03;;;7.68;60.78
69570;BME280;56781;42.292;23.146;2023-02-18T08:45:36;96420.22;;;8.35;58.04
69570;BME280;56781;42.292;23.146;2023-02-18T08:48:05;96426.53;;;8.09;58.93
69570;BME280;56781;42.292;23.146;2023-02-18T08:50:45;96430.25;;;8.03;59.44
69570;BME280;56781;42.292;23.146;2023-02-18T08:53:12;96440.22;;;7.70;60.37
69570;BME280;56781;42.292;23.146;2023-02-18T08:55:40;96445.06;;;7.78;60.71
69570;BME280;56781;42.292;23.146;2023-02-18T08:58:07;96409.03;;;7.70;61.21
69570;BME280;56781;42.292;23.146;2023-02-18T09:00:35;96409.88;;;7.71;60.80
69570;BME280;56781;42.292;23.146;2023-02-18T09:03:03;96447.69;;;8.36;58.75
69570;BME280;56781;42.292;23.146;2023-02-18T09:05:30;96428.28;;;8.40;58.20
69570;BME280;56781;42.292;23.146;2023-02-18T09:07:57;96426.06;;;8.27;57.49
69570;BME280;56781;42.292;23.146;2023-02-18T09:10:24;96453.88;;;8.47;56.58
69570;BME280;56781;42.292;23.146;2023-02-18T09:12:51;96458.22;;;7.95;57.72
69570;BME280;56781;42.292;23.146;2023-02-18T09:15:18;96428.44;;;7.55;58.39
69570;BME280;56781;42.292;23.146;2023-02-18T09:17:45;96410.00;;;7.44;57.37
69570;BME280;56781;42.292;23.146;2023-02-18T09:20:13;96449.28;;;7.69;58.50
69570;BME280;56781;42.292;23.146;2023-02-18T09:22:40;96423.19;;;7.71;56.95
69570;BME280;56781;42.292;23.146;2023-02-18T09:25:07;96439.72;;;7.73;56.83
69570;BME280;56781;42.292;23.146;2023-02-18T09:27:34;96412.50;;;7.66;56.95
69570;BME280;56781;42.292;23.146;2023-02-18T09:30:01;96426.88;;;7.65;55.94
69570;BME280;56781;42.292;23.146;2023-02-18T09:32:28;96394.50;;;7.36;56.70
69570;BME280;56781;42.292;23.146;2023-02-18T09:35:01;96425.84;;;7.76;56.86
69570;BME280;56781;42.292;23.146;2023-02-18T09:37:28;96427.44;;;7.72;55.94
69570;BME280;56781;42.292;23.146;2023-02-18T09:39:56;96385.00;;;7.55;55.57
69570;BME280;56781;42.292;23.146;2023-02-18T09:42:31;96392.31;;;7.80;54.70
69570;BME280;56781;42.292;23.146;2023-02-18T09:45:02;96381.28;;;7.56;55.80
69570;BME280;56781;42.292;23.146;2023-02-18T09:47:34;96387.41;;;7.57;55.59
69570;BME280;56781;42.292;23.146;2023-02-18T09:50:12;96376.72;;;7.51;56.49
69570;BME280;56781;42.292;23.146;2023-02-18T09:52:40;96363.88;;;8.06;54.48
69570;BME280;56781;42.292;23.146;2023-02-18T09:55:16;96392.78;;;7.67;53.84
69570;BME280;56781;42.292;23.146;2023-02-18T09:57:53;96375.22;;;7.71;53.92
69570;BME280;56781;42.292;23.146;2023-02-18T10:02:58;96391.50;;;8.88;52.80
69570;BME280;56781;42.292;23.146;2023-02-18T10:05:28;96379.13;;;9.59;48.54
69570;BME280;56781;42.292;23.146;2023-02-18T10:08:02;96368.03;;;8.96;48.27
69570;BME280;56781;42.292;23.146;2023-02-18T10:10:38;96365.66;;;9.85;48.02
69570;BME280;56781;42.292;23.146;2023-02-18T10:13:11;96311.41;;;9.74;47.51
69570;BME280;56781;42.292;23.146;2023-02-18T10:15:39;96340.44;;;10.01;46.62
69570;BME280;56781;42.292;23.146;2023-02-18T10:18:30;96346.72;;;9.66;47.40
69570;BME280;56781;42.292;23.146;2023-02-18T10:23:33;96350.28;;;10.55;46.74
69570;BME280;56781;42.292;23.146;2023-02-18T10:26:05;96345.19;;;10.93;47.72
69570;BME280;56781;42.292;23.146;2023-02-18T10:28:35;96324.44;;;10.75;45.99
69570;BME280;56781;42.292;23.146;2023-02-18T10:31:07;96308.56;;;10.54;46.81
69570;BME280;56781;42.292;23.146;2023-02-18T10:34:12;96319.06;;;9.96;46.77
69570;BME280;56781;42.292;23.146;2023-02-18T10:36:50;96308.66;;;10.39;46.73
69570;BME280;56781;42.292;23.146;2023-02-18T10:39:34;96302.50;;;10.73;46.14
69570;BME280;56781;42.292;23.146;2023-02-18T10:42:28;96309.34;;;10.89;45.12
69570;BME280;56781;42.292;23.146;2023-02-18T10:45:19;96293.72;;;10.96;44.94
69570;BME280;56781;42.292;23.146;2023-02-18T10:50:43;96301.72;;;11.97;44.34
69570;BME280;56781;42.292;23.146;2023-02-18T10:53:17;96269.06;;;12.28;40.93
69570;BME280;56781;42.292;23.146;2023-02-18T10:55:46;96267.47;;;12.27;41.41
69570;BME280;56781;42.292;23.146;2023-02-18T10:58:30;96277.13;;;12.94;41.60
69570;BME280;56781;42.292;23.146;2023-02-18T11:01:16;96243.44;;;12.36;39.27
69570;BME280;56781;42.292;23.146;2023-02-18T11:04:04;96266.84;;;12.82;38.87
69570;BME280;56781;42.292;23.146;2023-02-18T11:06:38;96254.13;;;12.88;37.57
69570;BME280;56781;42.292;23.146;2023-02-18T11:09:06;96265.78;;;12.64;36.94
69570;BME280;56781;42.292;23.146;2023-02-18T11:11:38;96229.44;;;12.20;37.07
69570;BME280;56781;42.292;23.146;2023-02-18T11:14:07;96263.41;;;12.30;37.67
69570;BME280;56781;42.292;23.146;2023-02-18T11:16:43;96238.69;;;12.14;37.77
69570;BME280;56781;42.292;23.146;2023-02-18T11:22:18;96219.44;;;11.69;39.34
69570;BME280;56781;42.292;23.146;2023-02-18T11:24:47;96242.28;;;11.42;39.43
69570;BME280;56781;42.292;23.146;2023-02-18T11:27:35;96226.44;;;11.46;38.88
69570;BME280;56781;42.292;23.146;2023-02-18T11:30:15;96226.06;;;11.95;38.33
69570;BME280;56781;42.292;23.146;2023-02-18T11:32:43;96228.19;;;12.64;39.41
69570;BME280;56781;42.292;23.146;2023-02-18T11:35:21;96222.28;;;13.08;37.23
69570;BME280;56781;42.292;23.146;2023-02-18T11:37:50;96213.13;;;13.09;37.29
69570;BME280;56781;42.292;23.146;2023-02-18T11:40:25;96208.53;;;13.10;38.63
69570;BME280;56781;42.292;23.146;2023-02-18T11:43:11;96199.44;;;13.75;35.52
69570;BME280;56781;42.292;23.146;2023-02-18T11:45:39;96177.06;;;13.52;36.09
69570;BME280;56781;42.292;23.146;2023-02-18T11:48:18;96184.56;;;13.78;35.21
69570;BME280;56781;42.292;23.146;2023-02-18T11:51:01;96203.69;;;13.90;37.37
69570;BME280;56781;42.292;23.146;2023-02-18T11:53:32;96170.28;;;13.91;36.28
69570;BME280;56781;42.292;23.146;2023-02-18T11:56:06;96177.25;;;13.92;36.09
69570;BME280;56781;42.292;23.146;2023-02-18T11:58:44;96173.16;;;13.58;37.92
69570;BME280;56781;42.292;23.146;2023-02-18T12:01:17;96182.06;;;13.81;37.75
69570;BME280;56781;42.292;23.146;2023-02-18T12:04:36;96158.88;;;13.71;38.13
69570;BME280;56781;42.292;23.146;2023-02-18T12:09:33;96152.41;;;13.95;36.23
69570;BME280;56781;42.292;23.146;2023-02-18T12:12:10;96141.28;;;13.65;36.92
69570;BME280;56781;42.292;23.146;2023-02-18T12:14:39;96131.25;;;14.02;37.41
69570;BME280;56781;42.292;23.146;2023-02-18T12:20:00;96156.72;;;13.60;38.87
69570;BME280;56781;42.292;23.146;2023-02-18T12:25:40;96136.47;;;14.30;37.72
69570;BME280;56781;42.292;23.146;2023-02-18T12:40:39;96118.84;;;14.77;37.33
69570;BME280;56781;42.292;23.146;2023-02-18T12:57:27;96100.44;;;15.37;36.80
69570;BME280;56781;42.292;23.146;2023-02-18T13:05:38;96100.59;;;15.66;37.05
69570;BME280;56781;42.292;23.146;2023-02-18T13:14:02;96067.25;;;15.71;35.22
69570;BME280;56781;42.292;23.146;2023-02-18T13:16:31;96080.41;;;15.55;35.60
69570;BME280;56781;42.292;23.146;2023-02-18T13:19:19;96078.69;;;15.50;34.00
69570;BME280;56781;42.292;23.146;2023-02-18T13:21:51;96062.19;;;15.26;34.49
69570;BME280;56781;42.292;23.146;2023-02-18T13:24:27;96062.16;;;15.17;34.51
69570;BME280;56781;42.292;23.146;2023-02-18T13:30:24;96049.28;;;14.97;35.03
69570;BME280;56781;42.292;23.146;2023-02-18T13:37:00;96051.72;;;15.42;34.06
69570;BME280;56781;42.292;23.146;2023-02-18T13:39:08;96036.31;;;15.51;34.65
69570;BME280;56781;42.292;23.146;2023-02-18T13:41:41;96049.16;;;15.63;34.50
69570;BME280;56781;42.292;23.146;2023-02-18T13:46:52;96024.72;;;15.50;33.21
69570;BME280;56781;42.292;23.146;2023-02-18T13:49:22;96041.38;;;15.61;33.18
69570;BME280;56781;42.292;23.146;2023-02-18T13:51:54;96052.63;;;15.63;32.10
69570;BME280;56781;42.292;23.146;2023-02-18T13:54:27;96016.47;;;15.38;31.99
69570;BME280;56781;42.292;23.146;2023-02-18T13:57:04;96024.06;;;15.54;32.59
69570;BME280;56781;42.292;23.146;2023-02-18T13:59:56;96049.63;;;15.65;32.05
69570;BME280;56781;42.292;23.146;2023-02-18T14:05:19;96030.91;;;15.42;32.36
69570;BME280;56781;42.292;23.146;2023-02-18T14:13:42;96039.47;;;15.10;33.88
69570;BME280;56781;42.292;23.146;2023-02-18T14:16:12;96018.34;;;14.85;33.63
69570;BME280;56781;42.292;23.146;2023-02-18T14:23:54;96012.25;;;14.62;34.20
69570;BME280;56781;42.292;23.146;2023-02-18T14:26:34;96034.47;;;14.68;34.70
69570;BME280;56781;42.292;23.146;2023-02-18T14:29:06;96021.72;;;14.51;35.58
69570;BME280;56781;42.292;23.146;2023-02-18T14:31:50;96012.31;;;14.40;35.22
69570;BME280;56781;42.292;23.146;2023-02-18T14:37:13;96019.22;;;14.24;35.47
69570;BME280;56781;42.292;23.146;2023-02-18T14:43:02;96028.69;;;14.12;36.14
69570;BME280;56781;42.292;23.146;2023-02-18T14:48:23;96020.13;;;13.79;36.80
69570;BME280;56781;42.292;23.146;2023-02-18T14:50:56;96001.50;;;13.60;37.18
69570;BME280;56781;42.292;23.146;2023-02-18T14:53:26;96014.06;;;13.51;37.63
69570;BME280;56781;42.292;23.146;2023-02-18T14:56:00;96015.69;;;13.52;37.08
69570;BME280;56781;42.292;23.146;2023-02-18T15:00:55;96038.78;;;13.53;37.21
69570;BME280;56781;42.292;23.146;2023-02-18T15:03:25;96009.56;;;13.38;36.43
69570;BME280;56781;42.292;23.146;2023-02-18T15:05:52;96011.59;;;13.18;37.16
69570;BME280;56781;42.292;23.146;2023-02-18T15:08:21;96024.34;;;13.13;37.38